createdAt,value
2022-08-25T00:01:35.136Z,16.20
2022-08-25T00:04:25.321Z,16.07
2022-08-25T00:07:18.547Z,15.90
2022-08-25T00:10:10.945Z,16.30
2022-08-25T00:13:00.851Z,15.70
2022-08-25T00:15:50.262Z,16.00
2022-08-25T00:18:40.438Z,16.20
2022-08-25T00:21:32.020Z,15.77
2022-08-25T00:24:23.920Z,16.10
2022-08-25T00:27:14.951Z,15.40
2022-08-25T00:30:06.046Z,15.30
2022-08-25T00:32:57.555Z,15.60
2022-08-25T00:35:47.116Z,15.20
2022-08-25T00:38:38.337Z,15.93
2022-08-25T00:41:28.323Z,15.90
2022-08-25T00:44:20.476Z,15.53
2022-08-25T00:47:10.156Z,15.40
2022-08-25T00:50:02.834Z,15.10
2022-08-25T00:52:56.524Z,14.57
2022-08-25T00:55:45.972Z,14.30
2022-08-25T00:58:37.273Z,16.13
2022-08-25T01:01:28.792Z,15.57
2022-08-25T01:04:18.884Z,15.97
2022-08-25T01:07:08.372Z,15.70
2022-08-25T01:10:09.983Z,15.83
2022-08-25T01:13:05.689Z,16.40
2022-08-25T01:15:58.045Z,15.90
2022-08-25T01:18:52.542Z,15.37
2022-08-25T01:21:47.165Z,16.50
2022-08-25T01:24:43.893Z,16.47
2022-08-25T01:27:33.293Z,15.33
2022-08-25T01:30:23.009Z,16.37
2022-08-25T01:33:13.461Z,14.97
2022-08-25T01:36:03.173Z,15.40
2022-08-25T01:38:53.967Z,15.10
2022-08-25T01:42:16.301Z,14.97
2022-08-25T01:45:06.964Z,15.10
2022-08-25T01:47:56.842Z,15.20
2022-08-25T01:50:46.196Z,15.73
2022-08-25T01:53:35.686Z,13.70
2022-08-25T01:56:26.463Z,14.83
2022-08-25T01:59:23.794Z,15.00
2022-08-25T02:02:14.044Z,14.90
2022-08-25T02:05:03.516Z,13.90
2022-08-25T02:07:54.567Z,14.33
2022-08-25T02:10:43.918Z,14.80
2022-08-25T02:13:34.854Z,14.67
2022-08-25T02:16:29.378Z,14.20
2022-08-25T02:19:21.282Z,14.50
2022-08-25T02:22:10.777Z,15.20
2022-08-25T02:25:00.312Z,14.37
2022-08-25T02:27:49.670Z,14.93
2022-08-25T02:30:43.541Z,15.37
2022-08-25T02:33:33.147Z,14.03
2022-08-25T02:36:23.299Z,14.83
2022-08-25T02:39:13.983Z,14.40
2022-08-25T02:42:03.441Z,15.20
2022-08-25T02:44:53.749Z,15.67
2022-08-25T02:47:44.882Z,14.23
2022-08-25T02:50:34.263Z,15.40
2022-08-25T02:53:23.750Z,14.60
2022-08-25T02:56:15.442Z,14.20
2022-08-25T02:59:05.947Z,14.03
2022-08-25T03:01:55.505Z,13.50
2022-08-25T03:04:46.421Z,13.73
2022-08-25T03:07:36.915Z,14.70
2022-08-25T03:10:26.556Z,14.57
2022-08-25T03:13:16.887Z,14.20
2022-08-25T03:16:11.219Z,13.70
2022-08-25T03:19:02.229Z,13.93
2022-08-25T03:21:56.263Z,14.17
2022-08-25T03:24:45.647Z,13.83
2022-08-25T03:27:34.877Z,13.70
2022-08-25T03:30:24.385Z,13.60
2022-08-25T03:33:13.880Z,14.10
2022-08-25T03:36:03.734Z,14.00
2022-08-25T03:38:55.147Z,13.70
2022-08-25T03:41:44.601Z,15.00
2022-08-25T03:44:33.967Z,14.37
2022-08-25T03:47:25.613Z,14.73
2022-08-25T03:50:16.074Z,14.53
2022-08-25T03:53:05.586Z,13.30
2022-08-25T03:55:57.709Z,13.87
2022-08-25T03:58:47.936Z,14.00
2022-08-25T04:01:38.004Z,13.90
2022-08-25T04:04:27.469Z,14.50
2022-08-25T04:07:16.849Z,14.90
2022-08-25T04:10:07.484Z,16.20
2022-08-25T04:12:58.529Z,14.70
2022-08-25T04:15:49.177Z,14.90
2022-08-25T04:18:38.647Z,15.00
2022-08-25T04:21:28.505Z,14.70
2022-08-25T04:24:18.013Z,14.60
2022-08-25T04:27:07.461Z,15.10
2022-08-25T04:29:58.262Z,15.33
2022-08-25T04:32:48.350Z,15.30
2022-08-25T04:35:37.794Z,15.10
2022-08-25T04:38:28.272Z,15.23
2022-08-25T04:41:20.658Z,15.10
2022-08-25T04:44:10.171Z,14.70
2022-08-25T04:47:02.032Z,14.47
2022-08-25T04:49:51.436Z,15.47
2022-08-25T04:52:40.853Z,14.60
2022-08-25T04:55:30.486Z,15.30
2022-08-25T04:58:19.856Z,14.97
2022-08-25T05:01:12.317Z,15.17
2022-08-25T05:04:06.381Z,15.33
2022-08-25T05:06:55.918Z,15.03
2022-08-25T05:09:45.400Z,14.83
2022-08-25T05:12:34.833Z,15.80
2022-08-25T05:15:42.556Z,17.27
2022-08-25T05:18:34.861Z,15.50
2022-08-25T05:21:28.802Z,16.00
2022-08-25T05:24:18.214Z,16.10
2022-08-25T05:27:07.767Z,15.23
2022-08-25T05:29:57.181Z,15.90
2022-08-25T05:32:46.694Z,15.50
2022-08-25T05:35:36.630Z,14.63
2022-08-25T05:38:27.665Z,15.30
2022-08-25T05:41:21.121Z,14.73
2022-08-25T05:44:10.541Z,15.07
2022-08-25T05:46:59.954Z,14.37
2022-08-25T05:49:49.599Z,14.30
2022-08-25T05:52:39.748Z,14.30
2022-08-25T05:55:30.564Z,13.70
2022-08-25T05:58:20.409Z,14.00
2022-08-25T06:01:28.705Z,13.17
2022-08-25T06:04:20.357Z,13.47
2022-08-25T06:07:10.017Z,13.20
2022-08-25T06:09:59.351Z,12.97
2022-08-25T06:12:50.190Z,12.87
2022-08-25T06:15:39.577Z,12.73
2022-08-25T06:18:29.410Z,12.30
2022-08-25T06:21:19.061Z,12.03
2022-08-25T06:24:14.712Z,12.40
2022-08-25T06:27:05.241Z,12.37
2022-08-25T06:29:56.168Z,12.37
2022-08-25T06:32:50.273Z,12.93
2022-08-25T06:35:43.478Z,12.60
2022-08-25T06:38:32.851Z,12.30
2022-08-25T06:41:22.505Z,12.90
2022-08-25T06:44:12.918Z,12.33
2022-08-25T06:47:03.787Z,12.17
2022-08-25T06:49:53.293Z,11.90
2022-08-25T06:52:43.161Z,12.33
2022-08-25T06:55:32.603Z,12.37
2022-08-25T06:58:22.066Z,12.87
2022-08-25T07:01:20.354Z,12.50
2022-08-25T07:04:13.204Z,12.13
2022-08-25T07:07:03.279Z,13.00
2022-08-25T07:09:52.680Z,13.07
2022-08-25T07:12:42.443Z,12.77
2022-08-25T07:15:31.966Z,12.70
2022-08-25T07:18:21.513Z,12.47
2022-08-25T07:21:12.962Z,12.30
2022-08-25T07:24:03.551Z,12.30
2022-08-25T07:26:53.136Z,11.70
2022-08-25T07:29:43.633Z,13.20
2022-08-25T07:32:32.983Z,11.93
2022-08-25T07:35:26.324Z,11.50
2022-08-25T07:38:20.688Z,11.33
2022-08-25T07:41:10.546Z,12.10
2022-08-25T07:44:00.065Z,11.23
2022-08-25T07:46:50.365Z,11.73
2022-08-25T07:49:40.500Z,11.52
2022-08-25T07:52:30.423Z,11.30
2022-08-25T07:55:21.830Z,11.68
2022-08-25T07:58:12.623Z,10.95
2022-08-25T08:01:02.209Z,10.82
2022-08-25T08:03:53.311Z,11.00
2022-08-25T08:06:43.702Z,10.65
2022-08-25T08:09:34.817Z,11.20
2022-08-25T08:12:25.762Z,10.40
2022-08-25T08:15:15.726Z,10.65
2022-08-25T08:18:07.232Z,10.23
2022-08-25T08:20:56.748Z,10.18
2022-08-25T08:23:46.183Z,10.45
2022-08-25T08:26:57.612Z,10.52
2022-08-25T09:33:29.248Z,10.40
2022-08-25T09:36:18.747Z,10.75
2022-08-25T09:39:09.915Z,10.82
2022-08-25T09:42:01.467Z,10.23
2022-08-25T09:44:50.865Z,10.57
2022-08-25T09:47:46.338Z,10.77
2022-08-25T09:50:37.542Z,10.65
2022-08-25T09:53:29.181Z,10.60
2022-08-25T09:56:26.359Z,10.93
2022-08-25T09:59:35.123Z,10.80
2022-08-25T10:02:29.534Z,11.30
2022-08-25T10:05:23.699Z,10.17
2022-08-25T10:08:26.087Z,10.47
2022-08-25T10:11:38.020Z,10.43
2022-08-25T10:14:35.240Z,10.05
2022-08-25T10:17:29.495Z,10.75
2022-08-25T10:20:23.177Z,10.73
2022-08-25T10:23:16.578Z,11.35
2022-08-25T10:26:15.935Z,10.40
2022-08-25T10:29:21.488Z,11.70
2022-08-25T10:32:20.021Z,10.63
2022-08-25T10:35:15.561Z,10.15
2022-08-25T10:38:36.044Z,10.20
2022-08-25T10:41:46.134Z,10.20
2022-08-25T10:45:01.873Z,10.43
2022-08-25T10:48:25.644Z,10.50
2022-08-25T10:51:51.047Z,10.67
2022-08-25T10:54:51.582Z,10.07
2022-08-25T10:57:56.251Z,10.07
2022-08-25T11:00:57.294Z,10.07
2022-08-25T11:03:52.397Z,11.15
2022-08-25T11:06:50.249Z,10.25
2022-08-25T11:09:49.446Z,10.63
2022-08-25T11:12:44.006Z,11.73
2022-08-25T11:15:59.956Z,11.17
2022-08-25T11:18:57.518Z,11.00
2022-08-25T11:21:55.216Z,10.63
2022-08-25T11:25:09.381Z,11.07
2022-08-25T11:28:10.467Z,11.50
2022-08-25T11:31:02.959Z,10.83
2022-08-25T11:33:56.014Z,10.70
2022-08-25T11:36:53.626Z,11.90
2022-08-25T11:40:17.905Z,11.17
2022-08-25T11:43:25.514Z,10.70
2022-08-25T11:46:49.611Z,11.77
2022-08-25T11:49:54.270Z,10.87
2022-08-25T11:52:54.082Z,10.80
2022-08-25T11:55:53.795Z,10.70
2022-08-25T11:58:50.171Z,11.17
2022-08-25T12:02:10.011Z,11.23
2022-08-25T12:04:59.774Z,11.40
2022-08-25T12:08:22.231Z,11.57
2022-08-25T12:11:14.341Z,11.50
2022-08-25T12:14:18.397Z,12.00
2022-08-25T12:17:20.806Z,11.80
2022-08-25T12:20:11.069Z,11.83
2022-08-25T12:23:01.469Z,11.57
2022-08-25T12:25:54.733Z,11.40
2022-08-25T12:29:07.473Z,11.63
2022-08-25T12:32:36.344Z,11.13
2022-08-25T12:35:32.047Z,11.37
2022-08-25T12:38:33.119Z,10.70
2022-08-25T12:41:30.870Z,11.07
2022-08-25T12:44:44.061Z,10.90
2022-08-25T12:47:33.898Z,11.00
2022-08-25T12:50:33.394Z,11.57
2022-08-25T12:53:34.942Z,11.03
2022-08-25T12:56:31.994Z,11.47
2022-08-25T12:59:36.849Z,10.63
2022-08-25T13:03:16.079Z,10.70
2022-08-25T13:06:20.161Z,10.63
2022-08-25T13:10:04.326Z,11.40
2022-08-25T13:13:02.549Z,11.17
2022-08-25T13:16:03.429Z,11.57
2022-08-25T13:18:57.794Z,10.50
2022-08-25T13:21:47.523Z,10.67
2022-08-25T13:24:43.723Z,10.80
2022-08-25T13:27:37.533Z,11.17
2022-08-25T13:30:30.699Z,11.00
2022-08-25T13:33:24.040Z,10.77
2022-08-25T13:36:36.058Z,10.80
2022-08-25T13:39:54.917Z,10.77
2022-08-25T13:42:38.176Z,10.77
2022-08-25T13:45:41.015Z,10.87
2022-08-25T13:48:40.269Z,11.40
2022-08-25T13:51:42.417Z,11.40
2022-08-25T13:54:41.101Z,11.60
2022-08-25T13:57:33.121Z,11.13
2022-08-25T14:00:35.943Z,11.07
2022-08-25T14:03:34.383Z,11.50
2022-08-25T14:06:28.964Z,11.20
2022-08-25T14:09:27.929Z,11.07
2022-08-25T14:12:38.116Z,10.57
2022-08-25T14:15:33.926Z,10.80
2022-08-25T14:18:29.529Z,11.23
2022-08-25T14:21:23.382Z,11.10
2022-08-25T14:24:17.594Z,11.13
2022-08-25T14:27:12.029Z,11.40
2022-08-25T14:30:01.753Z,11.30
2022-08-25T14:32:51.823Z,10.90
2022-08-25T14:35:50.473Z,10.60
2022-08-25T14:38:41.186Z,11.10
2022-08-25T14:41:37.056Z,10.60
2022-08-25T14:44:27.370Z,11.77
2022-08-25T14:47:16.857Z,10.67
2022-08-25T14:50:07.963Z,11.00
2022-08-25T14:53:01.908Z,10.23
2022-08-25T14:55:54.146Z,10.73
2022-08-25T14:58:54.146Z,11.13
2022-08-25T15:01:44.319Z,11.33
2022-08-25T15:07:42.449Z,11.33
2022-08-25T15:10:31.874Z,10.40
2022-08-25T15:13:22.629Z,11.10
2022-08-25T15:16:17.352Z,10.57
2022-08-25T15:19:14.610Z,10.47
2022-08-25T15:22:05.172Z,10.40
2022-08-25T15:24:56.081Z,10.60
2022-08-25T15:27:46.044Z,11.60
2022-08-25T15:30:36.090Z,10.97
2022-08-25T15:33:26.868Z,10.77
2022-08-25T15:36:21.069Z,11.03
2022-08-25T15:39:14.059Z,11.03
2022-08-25T15:42:03.971Z,10.83
2022-08-25T15:44:53.889Z,11.30
2022-08-25T15:47:43.333Z,11.10
2022-08-25T15:50:34.309Z,10.47
2022-08-25T15:53:26.174Z,11.17
2022-08-25T15:56:26.523Z,11.33
2022-08-25T15:59:17.091Z,11.47
2022-08-25T16:02:06.659Z,11.37
2022-08-25T16:05:06.064Z,11.13
2022-08-25T16:07:57.361Z,11.00
2022-08-25T16:10:47.019Z,10.93
2022-08-25T16:13:36.522Z,11.10
2022-08-25T16:16:29.270Z,11.20
2022-08-25T16:19:18.757Z,11.50
2022-08-25T16:22:08.855Z,12.00
2022-08-25T16:25:02.942Z,11.37
2022-08-25T16:27:55.544Z,11.30
2022-08-25T16:30:53.308Z,11.70
2022-08-25T16:33:42.930Z,11.30
2022-08-25T16:36:32.934Z,12.10
2022-08-25T16:39:23.843Z,12.00
2022-08-25T16:42:15.174Z,11.63
2022-08-25T16:45:05.376Z,11.63
2022-08-25T16:47:54.905Z,10.60
2022-08-25T16:50:44.298Z,12.17
2022-08-25T16:53:52.744Z,11.83
2022-08-25T16:56:44.341Z,11.47
2022-08-25T16:59:35.108Z,11.30
2022-08-25T17:02:24.488Z,11.30
2022-08-25T17:05:14.669Z,11.13
2022-08-25T17:08:22.542Z,11.23
2022-08-25T17:11:15.522Z,11.47
2022-08-25T17:14:11.121Z,11.97
2022-08-25T17:17:02.539Z,11.20
2022-08-25T17:19:53.636Z,11.33
2022-08-25T17:22:44.513Z,11.63
2022-08-25T17:25:36.483Z,11.27
2022-08-25T17:28:31.466Z,11.40
2022-08-25T17:31:22.334Z,11.33
2022-08-25T17:34:16.393Z,11.60
2022-08-25T17:37:06.824Z,11.17
2022-08-25T17:40:02.497Z,11.40
2022-08-25T17:42:52.770Z,11.80
2022-08-25T17:45:42.254Z,11.67
2022-08-25T17:48:33.090Z,11.77
2022-08-25T17:51:24.824Z,11.70
2022-08-25T17:54:15.743Z,11.63
2022-08-25T17:57:05.641Z,11.57
2022-08-25T17:59:54.987Z,12.00
2022-08-25T18:02:44.517Z,13.10
2022-08-25T18:05:35.693Z,12.40
2022-08-25T18:08:32.101Z,12.27
2022-08-25T18:11:26.745Z,12.30
2022-08-25T18:14:21.218Z,12.73
2022-08-25T18:17:14.141Z,12.03
2022-08-25T18:20:14.648Z,12.23
2022-08-25T18:23:09.008Z,13.27
2022-08-25T18:26:01.267Z,13.03
2022-08-25T18:28:50.711Z,12.70
2022-08-25T18:31:40.820Z,13.13
2022-08-25T18:34:31.728Z,13.07
2022-08-25T18:37:38.525Z,12.20
2022-08-25T18:40:28.599Z,12.27
2022-08-25T18:43:19.505Z,12.00
2022-08-25T18:46:09.177Z,12.50
2022-08-25T18:49:00.694Z,12.53
2022-08-25T18:51:50.185Z,12.87
2022-08-25T18:54:40.018Z,12.93
2022-08-25T18:57:29.976Z,13.50
2022-08-25T19:00:24.189Z,12.53
2022-08-25T19:03:16.843Z,13.27
2022-08-25T19:06:07.231Z,13.07
2022-08-25T19:08:56.856Z,13.13
2022-08-25T19:11:47.492Z,13.10
2022-08-25T19:14:37.168Z,12.90
2022-08-25T19:17:28.330Z,12.10
2022-08-25T19:20:29.606Z,12.70
2022-08-25T19:23:19.506Z,12.43
2022-08-25T19:26:17.133Z,12.63
2022-08-25T19:29:11.825Z,13.60
2022-08-25T19:32:02.192Z,13.20
2022-08-25T19:34:54.905Z,12.73
2022-08-25T19:37:45.131Z,12.80
2022-08-25T19:40:35.531Z,12.60
2022-08-25T19:43:25.423Z,13.13
2022-08-25T19:46:16.510Z,12.60
2022-08-25T19:49:13.807Z,13.70
2022-08-25T19:52:10.576Z,13.60
2022-08-25T19:55:03.014Z,12.57
2022-08-25T19:57:54.111Z,13.67
2022-08-25T20:00:44.741Z,12.77
2022-08-25T20:03:36.699Z,13.43
2022-08-25T20:06:27.620Z,13.30
2022-08-25T20:09:35.994Z,13.10
2022-08-25T20:12:29.641Z,14.23
2022-08-25T20:15:19.219Z,13.23
2022-08-25T20:18:10.205Z,13.00
2022-08-25T20:20:59.683Z,13.60
2022-08-25T20:24:06.815Z,13.70
2022-08-25T20:26:57.613Z,14.27
2022-08-25T20:29:47.682Z,13.67
2022-08-25T20:32:37.333Z,13.57
2022-08-25T20:35:29.261Z,14.07
2022-08-25T20:38:19.118Z,14.10
2022-08-25T20:41:10.950Z,13.43
2022-08-25T20:44:02.337Z,14.57
2022-08-25T20:46:52.200Z,14.80
2022-08-25T20:49:44.925Z,14.20
2022-08-25T20:52:34.804Z,13.50
2022-08-25T20:55:24.629Z,13.57
2022-08-25T20:58:16.979Z,13.80
2022-08-25T21:01:10.742Z,13.10
2022-08-25T21:04:01.381Z,13.07
2022-08-25T21:06:54.916Z,13.90
2022-08-25T21:09:44.528Z,13.77
2022-08-25T21:12:34.795Z,13.80
2022-08-25T21:15:25.211Z,13.13
2022-08-25T21:18:16.032Z,14.23
2022-08-25T21:21:11.375Z,13.83
2022-08-25T21:24:01.571Z,14.53
2022-08-25T21:26:55.910Z,14.37
2022-08-25T21:29:54.974Z,14.10
2022-08-25T21:32:52.983Z,13.77
2022-08-25T21:35:46.871Z,13.40
2022-08-25T21:38:36.768Z,13.73
2022-08-25T21:41:32.189Z,14.00
2022-08-25T21:44:22.627Z,14.30
2022-08-25T21:47:12.060Z,14.40
2022-08-25T21:50:01.600Z,13.83
2022-08-25T21:52:54.614Z,14.00
2022-08-25T21:55:45.211Z,13.57
2022-08-25T21:58:36.218Z,14.60
2022-08-25T22:01:25.906Z,14.70
2022-08-25T22:04:16.597Z,13.80
2022-08-25T22:07:06.774Z,13.97
2022-08-25T22:09:58.169Z,14.63
2022-08-25T22:12:49.186Z,14.33
2022-08-25T22:15:38.713Z,14.20
2022-08-25T22:18:29.935Z,13.90
2022-08-25T22:21:22.089Z,13.33
2022-08-25T22:24:12.114Z,14.07
2022-08-25T22:27:03.055Z,14.23
2022-08-25T22:29:53.200Z,14.10
2022-08-25T22:32:42.670Z,14.90
2022-08-25T22:35:36.942Z,14.10
2022-08-25T22:38:29.221Z,15.27
2022-08-25T22:41:21.542Z,14.67
2022-08-25T22:44:12.609Z,15.73
2022-08-25T22:47:02.081Z,14.70
2022-08-25T22:49:52.390Z,14.00
2022-08-25T22:52:42.428Z,13.40
2022-08-25T22:55:32.754Z,14.03
2022-08-25T22:58:22.469Z,14.30
2022-08-25T23:01:16.621Z,15.13
2022-08-25T23:04:07.680Z,15.10
2022-08-25T23:06:57.432Z,15.10
2022-08-25T23:09:46.823Z,14.60
2022-08-25T23:12:37.919Z,14.70
2022-08-25T23:15:27.595Z,14.43
2022-08-25T23:18:19.197Z,14.73
2022-08-25T23:21:27.253Z,14.50
2022-08-25T23:24:30.157Z,13.90
2022-08-25T23:27:22.492Z,14.27
2022-08-25T23:30:14.111Z,14.53
2022-08-25T23:33:03.700Z,13.63
2022-08-25T23:36:01.047Z,14.23
2022-08-25T23:38:51.811Z,14.70
2022-08-25T23:41:41.645Z,14.17
2022-08-25T23:44:31.123Z,15.03
2022-08-25T23:47:20.542Z,14.60
2022-08-25T23:50:10.911Z,14.80
2022-08-25T23:53:01.664Z,15.10
2022-08-25T23:55:53.927Z,14.60
2022-08-25T23:58:43.922Z,15.13
